Time;durP1;ratioP1;P1;durP2;ratioP2;P2;SDS_P1;SDS_P2;PMS_P1;PMS_P2;Temp;Humidity;BMP_temperature;BMP_pressure;BME280_temperature;BME280_humidity;BME280_pressure;Samples;Min_cycle;Max_cycle;Signal;HPM_P1;HPM_P2
2022/04/13 00:00:32;;;;;;;19.80;13.48;;;;;;;;;;5074613;28;20044;-77
2022/04/13 00:02:58;;;;;;;23.35;15.95;;;;;;;;;;5056509;28;20036;-77
2022/04/13 00:05:24;;;;;;;20.67;12.55;;;;;;;;;;5074358;28;20028;-77
2022/04/13 00:07:50;;;;;;;25.42;15.43;;;;;;;;;;5074473;28;20024;-76
2022/04/13 00:10:16;;;;;;;23.92;14.75;;;;;;;;;;5074122;28;20059;-76
2022/04/13 00:12:42;;;;;;;17.85;12.07;;;;;;;;;;5073842;28;20024;-75
2022/04/13 00:15:12;;;;;;;17.63;11.70;;;;;;;;;;5073847;28;20032;-80
2022/04/13 00:17:37;;;;;;;16.45;10.73;;;282.20;2124.80;;;;;;5074327;28;20028;-74
2022/04/13 00:20:05;;;;;;;20.05;11.88;;;282.00;2201.60;;;;;;5074159;28;20086;-76
2022/04/13 00:22:32;;;;;;;23.33;12.35;;;;;;;;;;5073944;28;20067;-75
2022/04/13 00:24:58;;;;;;;20.70;13.25;;;;;;;;;;5074054;28;20024;-76
2022/04/13 00:27:23;;;;;;;18.25;12.30;;;282.30;2124.80;;;;;;5073897;28;20023;-75
2022/04/13 00:29:50;;;;;;;17.48;10.95;;;;;;;;;;5074087;28;20021;-75
2022/04/13 00:32:16;;;;;;;18.55;11.65;;;;;;;;;;5074114;28;20025;-76
2022/04/13 00:34:42;;;;;;;19.17;11.32;;;;;;;;;;5073685;28;20031;-75
2022/04/13 00:37:08;;;;;;;16.85;10.77;;;;;;;;;;5073976;28;20477;-75
2022/04/13 00:39:34;;;;;;;17.38;10.35;;;;;;;;;;5074352;28;20039;-76
2022/04/13 00:42:02;;;;;;;18.35;10.75;;;;;;;;;;5055496;28;20037;-75
2022/04/13 00:44:29;;;;;;;17.65;11.52;;;;;;;;;;5073745;28;20058;-76
2022/04/13 00:46:55;;;;;;;17.73;12.07;;;;;;;;;;5055845;28;20050;-76
2022/04/13 00:49:22;;;;;;;17.75;11.38;;;;;;;;;;5073639;28;20024;-80
2022/04/13 00:51:48;;;;;;;20.13;12.40;;;;;;;;;;5073847;28;20016;-78
2022/04/13 00:54:17;;;;;;;15.68;11.30;;;;;;;;;;5073380;28;20512;-79
2022/04/13 00:56:43;;;;;;;18.23;11.00;;;;;;;;;;5073505;28;20028;-75
2022/04/13 00:59:10;;;;;;;17.83;12.48;;;;;;;;;;5073778;28;20025;-76
2022/04/13 01:01:41;;;;;;;18.75;11.55;;;;;;;;;;5055157;28;20033;-77
2022/04/13 01:04:07;;;;;;;15.03;10.60;;;;;;;;;;5073238;28;20371;-76
2022/04/13 01:06:34;;;;;;;17.88;11.40;;;;;;;;;;5073350;28;20307;-74
2022/04/13 01:09:01;;;;;;;20.70;12.43;;;;;;;;;;5073016;28;20131;-74
2022/04/13 01:11:28;;;;;;;19.20;12.43;;;;;;;;;;5073013;28;20051;-75
2022/04/13 01:13:55;;;;;;;15.27;10.18;;;;;;;;;;5073815;28;20074;-82
2022/04/13 01:16:22;;;;;;;18.33;10.98;;;;;;;;;;5073373;28;20115;-77
2022/04/13 01:18:48;;;;;;;14.02;10.13;;;;;;;;;;5073616;28;20025;-77
2022/04/13 01:21:17;;;;;;;14.70;10.45;;;;;;;;;;5072966;28;20119;-76
2022/04/13 01:23:43;;;;;;;16.23;10.85;;;;;;;;;;5073328;28;20016;-76
2022/04/13 01:26:11;;;;;;;15.55;10.57;;;;;;;;;;5071995;28;20035;-74
2022/04/13 01:28:37;;;;;;;17.13;10.32;;;;;;;;;;5073253;28;20023;-74
2022/04/13 01:31:03;;;;;;;15.73;10.23;;;;;;;;;;5073099;28;20064;-79
2022/04/13 01:33:30;;;;;;;15.57;10.55;;;;;;;;;;5073161;28;20021;-79
2022/04/13 01:36:00;;;;;;;16.25;10.80;;;;;;;;;;5072972;28;20036;-79
2022/04/13 01:38:26;;;;;;;15.95;10.32;;;;;;;;;;5073033;28;20051;-79
2022/04/13 01:40:53;;;;;;;13.05;10.23;;;;;;;;;;5072858;28;20028;-77
2022/04/13 01:43:19;;;;;;;16.90;11.05;;;;;;;;;;5072976;28;20024;-77
2022/04/13 01:45:45;;;;;;;13.02;9.10;;;;;;;;;;5073127;28;20028;-74
2022/04/13 01:48:10;;;;;;;12.95;8.80;;;256.60;2252.80;;;;;;5072808;28;20474;-75
2022/04/13 01:50:36;;;;;;;20.75;12.43;;;256.70;2252.80;;;;;;5073167;28;20031;-76
2022/04/13 01:53:02;;;;;;;15.18;9.85;;;256.60;2252.80;;;;;;5072891;28;20024;-75
2022/04/13 01:55:28;;;;;;;16.00;9.10;;;;;;;;;;5072640;28;20029;-74
2022/04/13 01:57:54;;;;;;;31.75;13.85;;;256.70;2252.80;;;;;;5072892;28;20166;-76
2022/04/13 02:00:19;;;;;;;18.05;10.05;;;256.60;2252.80;;;;;;5072997;28;20099;-74
2022/04/13 02:02:46;;;;;;;14.50;9.23;;;256.50;2252.80;;;;;;5072803;28;20051;-75
2022/04/13 02:05:12;;;;;;;15.02;9.30;;;;;;;;;;5072930;28;20066;-74
2022/04/13 02:07:38;;;;;;;15.40;10.18;;;;;;;;;;5072862;28;20116;-74
2022/04/13 02:10:05;;;;;;;13.70;9.45;;;;;;;;;;5072613;28;20490;-75
2022/04/13 02:12:32;;;;;;;13.73;9.07;;;256.50;2252.80;;;;;;5073096;28;20031;-75
2022/04/13 02:14:58;;;;;;;13.85;9.30;;;256.20;2252.80;;;;;;5072686;28;20548;-73
2022/04/13 02:17:24;;;;;;;13.02;8.25;;;;;;;;;;5072742;28;20416;-79
2022/04/13 02:19:49;;;;;;;10.57;8.02;;;256.40;2252.80;;;;;;5072442;28;20027;-74
2022/04/13 02:22:16;;;;;;;12.93;9.38;;;;;;;;;;5072870;28;20029;-74
2022/04/13 02:24:41;;;;;;;11.38;8.45;;;256.20;2252.80;;;;;;5072832;28;20390;-76
2022/04/13 02:27:09;;;;;;;13.82;9.18;;;256.10;2252.80;;;;;;5072496;28;20021;-74
2022/04/13 02:29:38;;;;;;;12.95;9.23;;;256.30;2252.80;;;;;;5072476;28;20425;-75
2022/04/13 02:32:05;;;;;;;16.55;9.98;;;;;;;;;;5072659;28;20028;-76
2022/04/13 02:34:31;;;;;;;14.30;10.73;;;231.30;2252.80;;;;;;5072340;28;20085;-75
2022/04/13 02:36:57;;;;;;;14.02;10.10;;;231.20;2252.80;;;;;;5073843;28;20036;-74
2022/04/13 02:39:23;;;;;;;13.32;9.77;;;231.20;2252.80;;;;;;5076271;28;20375;-74
2022/04/13 02:41:49;;;;;;;13.35;9.60;;;231.10;2252.80;;;;;;5076136;28;20039;-74
2022/04/13 02:44:15;;;;;;;15.23;9.52;;;;;;;;;;5076030;28;20017;-74
2022/04/13 02:46:43;;;;;;;16.92;9.60;;;;;;;;;;5075893;28;20494;-78
2022/04/13 02:49:11;;;;;;;14.88;9.10;;;;;;;;;;5075942;28;20070;-78
2022/04/13 02:51:37;;;;;;;11.38;7.63;;;230.80;2252.80;;;;;;5075819;28;20375;-77
2022/04/13 02:54:03;;;;;;;12.52;7.35;;;230.90;2252.80;;;;;;5075821;28;20493;-78
2022/04/13 02:56:29;;;;;;;15.05;8.45;;;231.00;2252.80;;;;;;5057628;28;20036;-74
2022/04/13 02:58:54;;;;;;;10.40;7.85;;;230.90;2252.80;;;;;;5075857;28;20078;-75
2022/04/13 03:01:21;;;;;;;11.32;7.70;;;;;;;;;;5075793;28;20478;-74
2022/04/13 03:03:47;;;;;;;10.52;7.78;;;;;;;;;;5075556;28;20495;-80
2022/04/13 03:06:13;;;;;;;11.15;7.78;;;;;;;;;;5075739;28;20056;-79
2022/04/13 03:08:39;;;;;;;14.27;7.65;;;;;;;;;;5075608;28;20033;-76
2022/04/13 03:11:07;;;;;;;12.25;7.93;;;231.00;2252.80;;;;;;5075348;28;20162;-75
2022/04/13 03:13:33;;;;;;;13.23;8.63;;;;;;;;;;5075765;28;20051;-75
2022/04/13 03:15:59;;;;;;;10.85;7.85;;;;;;;;;;5075481;28;20056;-75
2022/04/13 03:18:25;;;;;;;12.07;8.70;;;;;;;;;;5075588;28;20027;-75
2022/04/13 03:20:51;;;;;;;12.70;7.88;;;;;;;;;;5075837;28;20024;-75
2022/04/13 03:23:17;;;;;;;13.68;8.63;;;;;;;;;;5075391;28;20379;-75
2022/04/13 03:25:43;;;;;;;12.60;8.50;;;;;;;;;;5075530;28;20032;-75
2022/04/13 03:28:09;;;;;;;17.63;9.27;;;230.50;2252.80;;;;;;5075296;28;20070;-75
2022/04/13 03:30:35;;;;;;;14.45;9.45;;;230.80;2252.80;;;;;;5075237;28;20020;-74
2022/04/13 03:33:01;;;;;;;12.73;8.73;;;;;;;;;;5075039;28;20078;-76
2022/04/13 03:35:26;;;;;;;17.85;9.73;;;230.70;2252.80;;;;;;5056796;28;20048;-77
2022/04/13 03:37:52;;;;;;;11.60;9.68;;;205.70;2252.80;;;;;;5075225;28;20367;-76
2022/04/13 03:40:18;;;;;;;13.57;9.30;;;230.40;2252.80;;;;;;5074957;28;20035;-78
2022/04/13 03:42:44;;;;;;;12.95;8.70;;;205.60;2252.80;;;;;;5075324;28;20074;-79
2022/04/13 03:45:11;;;;;;;15.27;10.45;;;205.50;2252.80;;;;;;5075254;28;20029;-77
2022/04/13 03:47:38;;;;;;;12.57;9.90;;;205.60;2252.80;;;;;;5074382;28;20470;-75
2022/04/13 03:50:04;;;;;;;13.02;8.45;;;205.50;2252.80;;;;;;5074581;28;20471;-78
2022/04/13 03:52:34;;;;;;;11.73;8.57;;;;;;;;;;5074689;28;20099;-78
2022/04/13 03:55:00;;;;;;;13.93;8.80;;;;;;;;;;5074748;28;20031;-77
2022/04/13 03:57:26;;;;;;;16.25;9.45;;;;;;;;;;5074571;28;20029;-76
2022/04/13 03:59:52;;;;;;;13.95;8.77;;;;;;;;;;5074625;28;20028;-77
2022/04/13 04:02:18;;;;;;;21.88;13.90;;;;;;;;;;5074574;28;20024;-77
2022/04/13 04:04:44;;;;;;;13.70;10.95;;;;;;;;;;5074863;28;20016;-74
2022/04/13 04:07:10;;;;;;;20.17;12.02;;;;;;;;;;5074302;28;20024;-74
2022/04/13 04:09:36;;;;;;;16.85;11.00;;;;;;;;;;5074167;28;20554;-75
2022/04/13 04:12:03;;;;;;;13.73;9.75;;;205.60;2252.80;;;;;;5074340;28;20394;-80
2022/04/13 04:14:29;;;;;;;15.02;10.25;;;;;;;;;;5074260;28;20023;-77
2022/04/13 04:16:54;;;;;;;16.30;11.20;;;230.40;2252.80;;;;;;5074277;28;20056;-77
2022/04/13 04:19:21;;;;;;;16.30;10.93;;;205.60;2252.80;;;;;;5074340;28;20506;-78
2022/04/13 04:21:47;;;;;;;17.17;10.13;;;205.40;2252.80;;;;;;5074118;28;20107;-78
2022/04/13 04:24:13;;;;;;;15.88;9.57;;;;;;;;;;5074196;28;20048;-77
2022/04/13 04:26:39;;;;;;;21.92;11.18;;;205.70;2252.80;;;;;;5074117;28;20417;-77
2022/04/13 04:29:05;;;;;;;16.38;11.68;;;205.70;2252.80;;;;;;5074008;28;20102;-76
2022/04/13 04:34:16;;;;;;;22.40;14.88;;;;;;;;;;5074168;28;20058;-78
2022/04/13 04:36:42;;;;;;;21.63;14.82;;;230.90;2252.80;;;;;;5073645;28;20033;-74
2022/04/13 04:39:08;;;;;;;21.98;15.73;;;230.90;2252.80;;;;;;5073855;28;20077;-73
2022/04/13 04:41:34;;;;;;;26.50;16.30;;;231.00;2252.80;;;;;;5073582;28;20478;-73
2022/04/13 04:44:00;;;;;;;32.38;16.92;;;;;;;;;;5073520;28;20035;-78
2022/04/13 04:46:26;;;;;;;22.10;14.35;;;231.10;2252.80;;;;;;5073636;28;20057;-77
2022/04/13 04:48:52;;;;;;;22.55;13.00;;;230.80;2252.80;;;;;;5073662;28;20505;-77
2022/04/13 04:51:18;;;;;;;21.63;13.10;;;230.80;2252.80;;;;;;5073536;28;20028;-77
2022/04/13 04:53:44;;;;;;;16.63;11.25;;;230.80;2252.80;;;;;;5073594;28;20500;-74
2022/04/13 04:56:10;;;;;;;16.48;11.43;;;230.90;2252.80;;;;;;5073344;28;20036;-72
2022/04/13 04:58:36;;;;;;;17.70;11.45;;;230.70;2252.80;;;;;;5073734;28;20099;-77
2022/04/13 05:01:01;;;;;;;16.67;10.70;;;230.80;2252.80;;;;;;5073203;28;20029;-75
2022/04/13 05:03:27;;;;;;;17.25;11.50;;;230.70;2252.80;;;;;;5073287;28;20096;-75
2022/04/13 05:05:53;;;;;;;19.00;11.60;;;230.60;2252.80;;;;;;5073439;28;20048;-78
2022/04/13 05:08:19;;;;;;;18.38;12.23;;;;;;;;;;5073473;28;20025;-74
2022/04/13 05:10:51;;;;;;;23.23;13.45;;;;;;;;;;5073455;28;20028;-75
2022/04/13 05:13:20;;;;;;;19.55;13.57;;;;;;;;;;5073318;28;20405;-77
2022/04/13 05:15:46;;;;;;;21.67;13.98;;;;;;;;;;5073023;28;20490;-77
2022/04/13 05:18:13;;;;;;;19.35;14.23;;;230.70;2252.80;;;;;;5055130;28;20494;-76
2022/04/13 05:20:39;;;;;;;27.65;17.35;;;230.80;2252.80;;;;;;5073276;28;20475;-77
2022/04/13 05:23:05;;;;;;;23.80;15.30;;;230.90;2252.80;;;;;;5073161;28;20364;-79
2022/04/13 05:25:31;;;;;;;23.17;15.15;;;;;;;;;;5072851;28;20035;-76
2022/04/13 05:27:58;;;;;;;32.05;16.38;;;;;;;;;;5073135;28;20029;-78
2022/04/13 05:30:23;;;;;;;26.65;16.90;;;231.30;2252.80;;;;;;5054757;28;20512;-77
2022/04/13 05:32:57;;;;;;;25.35;15.63;;;231.30;2252.80;;;;;;5073293;28;20534;-77
2022/04/13 05:35:25;;;;;;;23.00;16.70;;;256.10;2252.80;;;;;;5072674;28;20067;-77
2022/04/13 05:37:51;;;;;;;30.23;18.27;;;;;;;;;;5072825;28;20027;-78
2022/04/13 05:40:17;;;;;;;38.92;22.00;;;;;;;;;;5054904;28;20028;-76
2022/04/13 05:42:43;;;;;;;37.63;22.58;;;256.60;2252.80;;;;;;5072847;28;20417;-77
2022/04/13 05:45:10;;;;;;;33.75;19.58;;;256.60;2252.80;;;;;;5072997;28;20545;-75
2022/04/13 05:47:37;;;;;;;38.67;21.25;;;256.60;2252.80;;;;;;5072851;28;20036;-74
2022/04/13 05:50:03;;;;;;;34.00;19.80;;;256.80;2252.80;;;;;;5073063;28;20052;-75
2022/04/13 05:52:30;;;;;;;25.05;16.73;;;;;;;;;;5072771;28;20025;-74
2022/04/13 05:54:56;;;;;;;29.27;16.15;;;;;;;;;;5072552;28;20028;-75
2022/04/13 05:57:22;;;;;;;25.17;15.02;;;;;;;;;;5072855;28;20077;-74
2022/04/13 05:59:48;;;;;;;24.10;14.43;;;;;;;;;;5073308;28;20340;-75
2022/04/13 06:02:14;;;;;;;23.38;13.90;;;281.70;2278.40;;;;;;5072797;28;20382;-75
2022/04/13 06:04:40;;;;;;;21.38;14.55;;;;;;;;;;5072667;28;20025;-75
2022/04/13 06:07:06;;;;;;;23.95;15.98;;;;;;;;;;5072587;28;20036;-75
2022/04/13 06:09:32;;;;;;;49.25;30.20;;;;;;;;;;5072262;28;20094;-78
2022/04/13 06:11:59;;;;;;;29.48;17.60;;;;;;;;;;5074217;28;20718;-76
2022/04/13 06:14:24;;;;;;;28.92;16.85;;;282.50;2278.40;;;;;;5076596;28;20100;-74
2022/04/13 06:16:51;;;;;;;31.05;17.85;;;;;;;;;;5076364;28;20124;-77
2022/04/13 06:19:17;;;;;;;33.63;20.40;;;;;;;;;;5076462;28;20029;-76
2022/04/13 06:21:43;;;;;;;34.30;20.42;;;;;;;;;;5076256;28;20035;-77
2022/04/13 06:24:09;;;;;;;45.15;23.50;;;;;;;;;;5076451;28;20528;-76
2022/04/13 06:26:35;;;;;;;38.30;23.48;;;;;;;;;;5076297;28;20046;-76
2022/04/13 06:29:01;;;;;;;44.67;25.67;;;;;;;;;;5076399;28;20037;-75
2022/04/13 06:31:27;;;;;;;43.45;23.05;;;;;;;;;;5076434;28;20059;-75
2022/04/13 06:33:53;;;;;;;36.40;21.92;;;;;;;;;;5076216;28;20104;-75
2022/04/13 06:36:20;;;;;;;26.95;17.40;;;;;;;;;;5057854;28;20475;-75
2022/04/13 06:38:46;;;;;;;34.25;19.00;;;;;;;;;;5076116;28;20036;-74
2022/04/13 06:41:12;;;;;;;30.33;18.80;;;;;;;;;;5075797;28;20032;-76
2022/04/13 06:43:39;;;;;;;39.90;21.20;;;;;;;;;;5076030;28;20024;-74
2022/04/13 06:46:09;;;;;;;35.40;21.05;;;;;;;;;;5076087;28;20031;-74
2022/04/13 06:48:36;;;;;;;32.65;21.08;;;;;;;;;;5057975;28;20025;-74
2022/04/13 06:51:03;;;;;;;36.10;21.10;;;;;;;;;;5075664;28;20448;-76
2022/04/13 06:53:29;;;;;;;31.52;19.95;;;;;;;;;;5075697;28;20017;-76
2022/04/13 06:55:55;;;;;;;24.50;18.52;;;;;;;;;;5075464;28;20109;-76
2022/04/13 06:58:21;;;;;;;30.42;19.40;;;;;;;;;;5075745;28;20025;-78
2022/04/13 07:00:47;;;;;;;34.80;19.90;;;;;;;;;;5075673;28;20082;-77
2022/04/13 07:03:14;;;;;;;22.58;16.27;;;;;;;;;;5075516;28;20070;-76
2022/04/13 07:05:40;;;;;;;31.63;17.52;;;;;;;;;;5075678;28;20056;-77
2022/04/13 07:08:06;;;;;;;26.17;17.10;;;;;;;;;;5075035;28;20016;-76
2022/04/13 07:10:34;;;;;;;26.05;17.05;;;384.00;2048.00;;;;;;5075875;28;20037;-75
2022/04/13 07:13:00;;;;;;;25.25;14.30;;;384.10;2048.00;;;;;;5075399;28;20016;-75
2022/04/13 07:15:27;;;;;;;22.77;13.52;;;384.30;1996.80;;;;;;5075470;28;20075;-75
2022/04/13 07:17:53;;;;;;;22.20;15.05;;;;;;;;;;5075404;28;20027;-75
2022/04/13 07:20:20;;;;;;;26.73;15.18;;;;;;;;;;5075235;28;20100;-75
2022/04/13 07:22:47;;;;;;;19.60;13.38;;;;;;;;;;5075225;28;20025;-75
2022/04/13 07:25:13;;;;;;;20.63;13.10;;;;;;;;;;5075109;28;20534;-74
2022/04/13 07:27:39;;;;;;;27.27;14.48;;;384.90;1868.80;;;;;;5075055;28;20031;-73
2022/04/13 07:30:06;;;;;;;21.23;13.52;;;409.60;1868.80;;;;;;5075039;28;20024;-75
2022/04/13 07:32:32;;;;;;;18.27;12.73;;;409.70;1843.20;;;;;;5075073;28;20382;-74
2022/04/13 07:34:59;;;;;;;21.35;13.43;;;;;;;;;;5074935;28;20028;-76
2022/04/13 07:37:25;;;;;;;21.50;12.02;;;;;;;;;;5075239;28;20025;-75
2022/04/13 07:39:52;;;;;;;16.02;10.25;;;;;;;;;;5075289;28;20064;-76
2022/04/13 07:42:21;;;;;;;19.17;11.40;;;;;;;;;;5074909;28;20032;-76
2022/04/13 07:44:47;;;;;;;18.65;11.25;;;;;;;;;;5074914;28;20028;-75
2022/04/13 07:47:17;;;;;;;18.27;11.20;;;;;;;;;;5075029;28;20028;-75
2022/04/13 07:49:46;;;;;;;20.48;12.35;;;435.20;1715.20;;;;;;5074848;28;20048;-77
2022/04/13 07:52:13;;;;;;;21.40;12.15;;;;;;;;;;5074806;28;20047;-76
2022/04/13 07:54:39;;;;;;;30.55;14.88;;;435.70;1689.60;;;;;;5074398;28;20024;-79
2022/04/13 07:57:05;;;;;;;25.67;13.18;;;;;;;;;;5074607;28;20089;-75
2022/04/13 07:59:31;;;;;;;21.13;12.20;;;;;;;;;;5074510;28;20028;-76
2022/04/13 08:01:57;;;;;;;23.08;13.13;;;;;;;;;;5074273;28;20099;-75
2022/04/13 08:04:24;;;;;;;16.15;11.25;;;;;;;;;;5074634;28;20028;-74
2022/04/13 08:06:50;;;;;;;32.80;14.15;;;;;;;;;;5074533;28;20426;-75
2022/04/13 08:09:16;;;;;;;18.77;11.52;;;;;;;;;;5074303;28;20075;-75
2022/04/13 08:11:44;;;;;;;23.52;11.63;;;461.10;1587.20;;;;;;5074201;28;20390;-74
2022/04/13 08:14:10;;;;;;;19.23;12.02;;;;;;;;;;5074339;28;20032;-76
2022/04/13 08:16:36;;;;;;;15.32;10.70;;;;;;;;;;5074259;28;20417;-77
2022/04/13 08:19:02;;;;;;;21.83;11.85;;;;;;;;;;5074138;28;20030;-77
2022/04/13 08:21:28;;;;;;;15.73;10.65;;;;;;;;;;5074096;28;20048;-76
2022/04/13 08:23:54;;;;;;;16.08;10.85;;;;;;;;;;5074084;28;20024;-74
2022/04/13 08:26:20;;;;;;;16.00;8.85;;;;;;;;;;5073985;28;20387;-75
2022/04/13 08:28:47;;;;;;;13.20;8.85;;;;;;;;;;5073978;28;20059;-73
2022/04/13 08:31:13;;;;;;;14.02;9.68;;;;;;;;;;5073965;28;20024;-74
2022/04/13 08:33:39;;;;;;;16.40;10.40;;;;;;;;;;5073648;28;20070;-73
2022/04/13 08:36:05;;;;;;;12.82;9.68;;;;;;;;;;5073171;28;20039;-72
2022/04/13 08:38:31;;;;;;;16.30;9.70;;;;;;;;;;5073948;28;20033;-73
2022/04/13 08:41:01;;;;;;;14.43;9.23;;;;;;;;;;5073591;28;20029;-72
2022/04/13 08:43:49;;;;;;;15.30;9.65;;;;;;;;;;5074048;28;20025;-71
2022/04/13 08:46:18;;;;;;;17.67;11.45;;;;;;;;;;5073628;28;20552;-73
2022/04/13 08:48:47;;;;;;;17.38;10.65;;;;;;;;;;5073280;28;20028;-72
2022/04/13 08:51:17;;;;;;;14.55;10.82;;;;;;;;;;5073267;28;20021;-71
2022/04/13 08:53:49;;;;;;;15.10;10.35;;;487.10;1356.80;;;;;;5073431;28;20052;-76
2022/04/13 08:56:18;;;;;;;19.65;10.00;;;487.20;1356.80;;;;;;5073524;28;20482;-79
2022/04/13 08:59:03;;;;;;;16.77;10.10;;;487.30;1331.20;;;;;;5073712;28;20364;-75
2022/04/13 09:02:02;;;;;;;31.95;16.02;;;;;;;;;;5073223;28;20145;-77
2022/04/13 09:04:30;;;;;;;17.38;10.38;;;;;;;;;;5011488;28;20044;-77
2022/04/13 09:07:02;;;;;;;28.33;19.33;;;;;;;;;;5011496;28;20042;-76
2022/04/13 09:09:32;;;;;;;16.67;10.98;;;;;;;;;;5011585;28;20081;-76
2022/04/13 09:11:58;;;;;;;20.65;11.55;;;;;;;;;;5011477;28;20036;-78
2022/04/13 09:14:27;;;;;;;20.83;10.52;;;;;;;;;;5011456;28;20041;-75
2022/04/13 09:16:53;;;;;;;23.30;11.40;;;;;;;;;;5011297;28;20038;-78
2022/04/13 09:19:19;;;;;;;11.95;8.13;;;;;;;;;;5011570;28;20033;-75
2022/04/13 09:21:45;;;;;;;18.88;9.15;;;;;;;;;;5011248;28;20045;-71
2022/04/13 09:24:13;;;;;;;17.27;7.57;;;;;;;;;;5010961;28;20034;-79
2022/04/13 09:26:39;;;;;;;12.50;6.85;;;;;;;;;;4995075;28;20467;-78
2022/04/13 09:29:05;;;;;;;16.77;7.45;;;;;;;;;;5011363;28;20030;-78
2022/04/13 09:31:32;;;;;;;14.68;7.47;;;;;;;;;;5011339;28;20029;-79
2022/04/13 09:33:58;;;;;;;9.45;6.15;;;;;;;;;;5011401;28;20089;-78
2022/04/13 09:36:24;;;;;;;9.45;6.47;;;;;;;;;;5011261;28;20120;-78
2022/04/13 09:38:54;;;;;;;10.45;6.90;;;;;;;;;;5012111;28;20069;-74
2022/04/13 09:41:20;;;;;;;11.07;6.45;;;;;;;;;;5073417;28;20036;-75
2022/04/13 09:43:55;;;;;;;8.82;6.45;;;;;;;;;;5072948;28;20029;-75
2022/04/13 09:46:28;;;;;;;11.63;7.18;;;;;;;;;;5073384;28;20094;-75
2022/04/13 09:49:10;;;;;;;10.27;6.07;;;;;;;;;;5076926;28;20017;-75
2022/04/13 09:51:37;;;;;;;14.70;7.03;;;;;;;;;;5076980;28;20502;-76
2022/04/13 09:54:10;;;;;;;11.27;7.80;;;;;;;;;;5076794;28;20047;-75
2022/04/13 09:56:38;;;;;;;8.82;6.38;;;;;;;;;;5058293;28;20075;-76
2022/04/13 09:59:07;;;;;;;14.52;6.10;;;;;;;;;;5076895;28;20018;-75
2022/04/13 10:01:37;;;;;;;11.35;6.43;;;;;;;;;;5076928;28;20498;-75
2022/04/13 10:04:03;;;;;;;8.90;6.10;;;;;;;;;;5076798;28;20387;-76
2022/04/13 10:06:36;;;;;;;14.43;6.00;;;;;;;;;;5076636;28;20020;-76
2022/04/13 10:09:08;;;;;;;8.43;5.80;;;;;;;;;;5076359;28;20124;-77
2022/04/13 10:11:35;;;;;;;9.68;6.20;;;;;;;;;;5076851;28;20052;-77
2022/04/13 10:14:02;;;;;;;17.45;5.97;;;;;;;;;;5076737;28;20123;-75
2022/04/13 10:16:32;;;;;;;8.23;6.05;;;;;;;;;;5076518;28;20028;-75
2022/04/13 10:18:59;;;;;;;7.60;5.60;;;;;;;;;;5076495;28;20025;-77
2022/04/13 10:21:36;;;;;;;7.80;5.53;;;;;;;;;;5076566;28;20040;-77
2022/04/13 10:24:02;;;;;;;7.18;5.10;;;;;;;;;;5076189;28;20033;-76
2022/04/13 10:26:29;;;;;;;6.72;5.65;;;;;;;;;;5076347;28;20047;-78
2022/04/13 10:28:55;;;;;;;9.25;5.22;;;;;;;;;;5076399;28;20021;-77
2022/04/13 10:31:21;;;;;;;9.85;5.55;;;;;;;;;;5076351;28;20025;-76
2022/04/13 10:33:48;;;;;;;7.63;6.13;;;;;;;;;;5076250;28;20475;-76
2022/04/13 10:36:15;;;;;;;7.07;4.35;;;;;;;;;;5075950;28;20510;-76
2022/04/13 10:38:41;;;;;;;5.80;3.90;;;;;;;;;;5075833;28;20544;-76
2022/04/13 10:41:12;;;;;;;7.50;4.57;;;1076.10;435.20;;;;;;5076036;28;20039;-78
2022/04/13 10:43:39;;;;;;;11.82;6.50;;;;;;;;;;5057875;28;20090;-75
2022/04/13 10:46:06;;;;;;;8.40;5.75;;;1100.90;460.80;;;;;;5076031;28;20024;-77
2022/04/13 10:48:38;;;;;;;9.07;4.90;;;1101.00;460.80;;;;;;5075932;28;20036;-75
2022/04/13 10:51:12;;;;;;;6.93;4.65;;;;;;;;;;5057967;28;20033;-76
2022/04/13 10:54:00;;;;;;;11.93;5.10;;;;;;;;;;5075516;28;20039;-78
2022/04/13 10:56:33;;;;;;;5.63;4.10;;;;;;;;;;5075649;28;20037;-76
2022/04/13 10:59:06;;;;;;;7.40;4.25;;;;;;;;;;5075069;28;20024;-76
2022/04/13 11:01:40;;;;;;;8.45;4.97;;;1127.30;409.60;;;;;;5075287;28;20068;-76
2022/04/13 11:04:07;;;;;;;7.30;4.57;;;;;;;;;;5075509;28;20024;-79
2022/04/13 11:06:35;;;;;;;7.90;4.55;;;;;;;;;;5075631;28;20025;-78
2022/04/13 11:09:21;;;;;;;6.18;4.20;;;;;;;;;;5075293;28;20036;-76
2022/04/13 11:11:48;;;;;;;8.75;5.18;;;;;;;;;;5075125;28;20021;-78
2022/04/13 11:17:15;;;;;;;8.85;4.68;;;;;;;;;;5091639;22;20402;-78
2022/04/13 11:19:42;;;;;;;16.17;5.95;;;1101.60;435.20;;;;;;5073910;28;20471;-77
2022/04/13 11:22:10;;;;;;;13.32;5.38;;;;;;;;;;5057066;28;20470;-76
2022/04/13 11:24:37;;;;;;;8.68;6.30;;;;;;;;;;5075068;28;20020;-78
2022/04/13 11:27:04;;;;;;;9.77;5.68;;;;;;;;;;5075132;28;20036;-78
2022/04/13 11:29:33;;;;;;;8.30;5.97;;;;;;;;;;5075124;28;20025;-77
2022/04/13 11:32:04;;;;;;;6.78;4.55;;;;;;;;;;5075271;28;20035;-77
2022/04/13 11:34:30;;;;;;;;;;;;;;;;;;5075259;28;20024;-76
2022/04/13 11:36:59;;;;;;;15.10;5.38;;;;;;;;;;5074635;28;19912;-76
2022/04/13 11:39:45;;;;;;;8.23;4.72;;;;;;;;;;5074322;28;20028;-76
2022/04/13 11:42:38;;;;;;;10.13;5.03;;;;;;;;;;5074691;28;20048;-77
2022/04/13 11:45:07;;;;;;;11.85;5.78;;;;;;;;;;5074865;28;20044;-76
2022/04/13 11:47:50;;;;;;;10.60;6.68;;;922.20;512.00;;;;;;5074544;28;20024;-76
2022/04/13 11:50:22;;;;;;;10.13;5.38;;;;;;;;;;5074592;28;20040;-76
2022/04/13 11:53:00;;;;;;;5.50;4.85;;;;;;;;;;5074639;28;20029;-76
2022/04/13 11:55:26;;;;;;;6.38;4.78;;;;;;;;;;5074286;28;20049;-77
2022/04/13 11:58:04;;;;;;;11.68;6.18;;;870.90;537.60;;;;;;5056440;28;20031;-78
2022/04/13 12:00:41;;;;;;;12.52;5.00;;;;;;;;;;5055370;28;20080;-77
2022/04/13 12:03:14;;;;;;;9.23;5.25;;;;;;;;;;5054270;28;20463;-78
2022/04/13 12:05:41;;;;;;;11.50;5.57;;;;;;;;;;5065600;28;20111;-77
2022/04/13 12:08:14;;;;;;;6.43;4.40;;;;;;;;;;5035925;28;20445;-78
2022/04/13 12:10:44;;;;;;;8.48;5.35;;;;;;;;;;5053828;28;20029;-75
2022/04/13 12:13:11;;;;;;;7.78;5.22;;;793.60;614.40;;;;;;5053939;28;20031;-74
2022/04/13 12:15:44;;;;;;;9.15;5.03;;;;;;;;;;5053786;28;20053;-74
2022/04/13 12:18:10;;;;;;;14.95;6.63;;;;;;;;;;5054202;28;20119;-74
2022/04/13 12:20:37;;;;;;;8.23;4.72;;;;;;;;;;5054343;28;20067;-75
2022/04/13 12:23:19;;;;;;;8.07;5.53;;;;;;;;;;5054062;28;20104;-76
2022/04/13 12:25:46;;;;;;;7.10;4.63;;;;;;;;;;5053645;28;20029;-75
2022/04/13 12:28:13;;;;;;;19.77;9.07;;;742.40;691.20;;;;;;5053889;28;20476;-75
2022/04/13 12:30:39;;;;;;;8.35;5.70;;;742.40;691.20;;;;;;5053752;28;20047;-75
2022/04/13 12:33:24;;;;;;;11.35;6.82;;;;;;;;;;5053818;28;20045;-75
2022/04/13 12:35:51;;;;;;;10.95;5.05;;;717.10;691.20;;;;;;5053770;28;20024;-75
2022/04/13 12:38:21;;;;;;;7.88;5.13;;;;;;;;;;5053768;28;20043;-76
2022/04/13 12:40:47;;;;;;;10.75;5.90;;;;;;;;;;5053613;28;20386;-76
2022/04/13 12:43:25;;;;;;;9.85;5.32;;;;;;;;;;5053782;28;20024;-74
2022/04/13 12:45:52;;;;;;;7.93;5.13;;;;;;;;;;5035563;28;20044;-75
2022/04/13 12:48:17;;;;;;;7.55;5.03;;;666.40;716.80;;;;;;5054006;28;20116;-74
2022/04/13 12:51:00;;;;;;;7.10;6.18;;;;;;;;;;5053922;28;20049;-73
2022/04/13 12:53:26;;;;;;;10.68;6.15;;;;;;;;;;5053356;28;20055;-74
2022/04/13 12:55:57;;;;;;;10.68;6.47;;;;;;;;;;5053397;28;20538;-74
2022/04/13 12:58:23;;;;;;;8.07;4.72;;;;;;;;;;5053348;28;20029;-74
2022/04/13 13:00:50;;;;;;;14.38;5.75;;;;;;;;;;5053609;28;20083;-76
2022/04/13 13:03:16;;;;;;;6.93;4.10;;;;;;;;;;5053617;28;20029;-74
2022/04/13 13:05:43;;;;;;;6.40;4.65;;;;;;;;;;5053132;28;20036;-74
2022/04/13 13:08:09;;;;;;;6.80;4.53;;;;;;;;;;5035207;28;20025;-74
2022/04/13 13:10:35;;;;;;;9.30;5.50;;;;;;;;;;5052951;28;20028;-75
2022/04/13 13:13:10;;;;;;;13.13;4.63;;;;;;;;;;5035168;28;20515;-74
2022/04/13 13:15:37;;;;;;;6.97;4.65;;;;;;;;;;5035255;28;20080;-74
2022/04/13 13:18:06;;;;;;;6.00;4.70;;;;;;;;;;5052962;28;20496;-75
2022/04/13 13:20:33;;;;;;;7.57;4.57;;;;;;;;;;5052792;28;20479;-74
2022/04/13 13:22:59;;;;;;;10.68;6.45;;;;;;;;;;5053119;28;20053;-74
2022/04/13 13:25:25;;;;;;;7.80;5.78;;;;;;;;;;5052217;28;20029;-74
2022/04/13 13:27:55;;;;;;;10.27;5.25;;;;;;;;;;5052817;28;20017;-74
2022/04/13 13:30:21;;;;;;;8.35;4.65;;;;;;;;;;5052911;28;20036;-74
2022/04/13 13:32:47;;;;;;;10.85;5.90;;;;;;;;;;5052640;28;20075;-74
2022/04/13 13:35:17;;;;;;;8.32;5.07;;;;;;;;;;5052668;28;20068;-73
2022/04/13 13:37:44;;;;;;;19.25;8.73;;;;;;;;;;5052793;28;20060;-75
2022/04/13 13:40:28;;;;;;;18.83;12.57;;;;;;;;;;5052687;28;20029;-75
2022/04/13 13:42:54;;;;;;;7.22;5.43;;;;;;;;;;5053044;28;20364;-78
2022/04/13 13:45:20;;;;;;;15.30;8.35;;;;;;;;;;5052891;28;20041;-77
2022/04/13 13:47:47;;;;;;;11.50;6.72;;;;;;;;;;5052819;28;20069;-77
2022/04/13 13:50:13;;;;;;;18.00;11.45;;;;;;;;;;5052592;28;20025;-76
2022/04/13 13:52:39;;;;;;;7.40;5.72;;;;;;;;;;5052654;28;20028;-75